Saint-Simeon, Canada
Current Conditions -  °F | °C
As of 11:00 AM on Friday 24 Oct 2014 (Local Time) from CYBG Reporting Station
Broken Clouds Broken Clouds  
Wind Chill: 43°   Ceiling: 19000
Heat Index: 43°   Visibility: 25mi
Dew Point: 32°   Wind: 2mph
Humidity: 66%   Direction: 260°W
Pressure: 29.96"   Gusts: NA
Location:  47.85°N, 69.88°W
Report Text: CYBG 241500Z 26002KT 25SM BKN190 06/M00 A2996 RMK AC5 SLP152
Loading
Personal Weather Stations






























Interactive Weather Map
Tropical Storm Tracking
New forecast layout! Learn more

10-Day Weather Forecast

Advertisements
Track Severe Weather on mobile